ABY087 EBBR-EGLL
Flight info
| Callsign | ABY087 |
|---|---|
| Flight time | 0h 37m |
| Altitude | 24000 |
| Route | HELEN3G HELEN L179 COA L608 LOGAN LOGAN2H |
| Aircraft | A320/M-VGDW/C |
Departure
| Time | 2026-05-07 20:33 |
|---|---|
| Airport | Brussels Airport (EBBR) |
Arrival
| Time | 2026-05-07 21:11 |
|---|---|
| Airport | London Heathrow Airport (EGLL) |
| Time | Latitude | Longitude | Altitude | Speed | Heading |
|---|---|---|---|---|---|
| 2026-05-07 20:14 | 50.90132 | 4.47623 | 141 ft | 0 kts | 155° |
| 2026-05-07 20:26 | 50.90137 | 4.47619 | 141 ft | 2 kts | 155° |
| 2026-05-07 20:26 | 50.90152 | 4.47608 | 141 ft | 2 kts | 155° |
| 2026-05-07 20:26 | 50.90168 | 4.47597 | 141 ft | 2 kts | 155° |
| 2026-05-07 20:26 | 50.90184 | 4.47585 | 140 ft | 3 kts | 155° |
| 2026-05-07 20:27 | 50.90199 | 4.47574 | 140 ft | 2 kts | 180° |
| 2026-05-07 20:27 | 50.90215 | 4.47565 | 140 ft | 2 kts | 108° |
| 2026-05-07 20:27 | 50.90217 | 4.47557 | 140 ft | 0 kts | 93° |
| 2026-05-07 20:28 | 50.90216 | 4.47562 | 140 ft | 4 kts | 93° |
| 2026-05-07 20:29 | 50.90250 | 4.47696 | 138 ft | 18 kts | 65° |
| 2026-05-07 20:29 | 50.90305 | 4.47888 | 140 ft | 20 kts | 64° |
| 2026-05-07 20:29 | 50.90343 | 4.48016 | 140 ft | 10 kts | 56° |
| 2026-05-07 20:29 | 50.90414 | 4.48036 | 140 ft | 11 kts | 19° |
| 2026-05-07 20:30 | 50.90464 | 4.48169 | 142 ft | 17 kts | 68° |
| 2026-05-07 20:30 | 50.90525 | 4.48385 | 138 ft | 26 kts | 65° |
| 2026-05-07 20:30 | 50.90609 | 4.48675 | 126 ft | 31 kts | 65° |
| 2026-05-07 20:30 | 50.90702 | 4.48996 | 125 ft | 33 kts | 65° |
| 2026-05-07 20:31 | 50.90792 | 4.49308 | 128 ft | 21 kts | 65° |
| 2026-05-07 20:31 | 50.90840 | 4.49475 | 128 ft | 11 kts | 65° |
| 2026-05-07 20:31 | 50.90868 | 4.49572 | 128 ft | 9 kts | 65° |
| 2026-05-07 20:31 | 50.90891 | 4.49636 | 122 ft | 5 kts | 49° |
| 2026-05-07 20:32 | 50.90926 | 4.49670 | 124 ft | 7 kts | 18° |
| 2026-05-07 20:32 | 50.90967 | 4.49654 | 122 ft | 5 kts | 321° |
| 2026-05-07 20:32 | 50.90979 | 4.49606 | 126 ft | 9 kts | 281° |
| 2026-05-07 20:32 | 50.90987 | 4.49402 | 133 ft | 28 kts | 260° |
| 2026-05-07 20:33 | 50.90851 | 4.48883 | 133 ft | 86 kts | 245° |
| 2026-05-07 20:33 | 50.90504 | 4.47680 | 142 ft | 152 kts | 246° |
| 2026-05-07 20:33 | 50.90043 | 4.46034 | 680 ft | 165 kts | 246° |
| 2026-05-07 20:33 | 50.89697 | 4.44307 | 1554 ft | 165 kts | 260° |
| 2026-05-07 20:34 | 50.89632 | 4.42504 | 2391 ft | 163 kts | 274° |
| 2026-05-07 20:34 | 50.89864 | 4.40609 | 3182 ft | 162 kts | 289° |
| 2026-05-07 20:34 | 50.92488 | 4.36048 | 4890 ft | 199 kts | 338° |
| 2026-05-07 20:34 | 50.97432 | 4.28285 | 7064 ft | 280 kts | 315° |
| 2026-05-07 20:35 | 51.03133 | 4.19585 | 10809 ft | 298 kts | 313° |
| 2026-05-07 20:35 | 51.09685 | 4.09110 | 13147 ft | 353 kts | 314° |
| 2026-05-07 20:35 | 51.16751 | 3.97852 | 16210 ft | 366 kts | 313° |
| 2026-05-07 20:35 | 51.23651 | 3.85626 | 18926 ft | 377 kts | 297° |
| 2026-05-07 20:36 | 51.27300 | 3.69777 | 21357 ft | 385 kts | 288° |
| 2026-05-07 20:36 | 51.30928 | 3.53446 | 23641 ft | 395 kts | 288° |
| 2026-05-07 20:36 | 51.34573 | 3.36627 | 24081 ft | 395 kts | 288° |
| 2026-05-07 20:36 | 51.35879 | 3.30773 | 24091 ft | 400 kts | 289° |
| 2026-05-07 20:37 | 51.36864 | 3.26609 | 24087 ft | 400 kts | 289° |
| 2026-05-07 20:37 | 51.37867 | 3.22455 | 24090 ft | 401 kts | 290° |
| 2026-05-07 20:37 | 51.38873 | 3.18297 | 24087 ft | 401 kts | 289° |
| 2026-05-07 20:37 | 51.39874 | 3.14131 | 24090 ft | 401 kts | 289° |
| 2026-05-07 20:38 | 51.40867 | 3.09968 | 24089 ft | 401 kts | 289° |
| 2026-05-07 20:38 | 51.41856 | 3.05795 | 24093 ft | 400 kts | 289° |
| 2026-05-07 20:38 | 51.42838 | 3.01625 | 24093 ft | 400 kts | 289° |
| 2026-05-07 20:38 | 51.43817 | 2.97446 | 24091 ft | 400 kts | 289° |
| 2026-05-07 20:39 | 51.44778 | 2.93322 | 24091 ft | 400 kts | 289° |
| 2026-05-07 20:39 | 51.45754 | 2.89143 | 24090 ft | 400 kts | 289° |
| 2026-05-07 20:39 | 51.46729 | 2.84973 | 24097 ft | 398 kts | 289° |
| 2026-05-07 20:39 | 51.47704 | 2.80805 | 24096 ft | 399 kts | 289° |
| 2026-05-07 20:40 | 51.48678 | 2.76623 | 24089 ft | 400 kts | 289° |
| 2026-05-07 20:40 | 51.49648 | 2.72437 | 24093 ft | 400 kts | 289° |
| 2026-05-07 20:40 | 51.50617 | 2.68244 | 24093 ft | 400 kts | 289° |
| 2026-05-07 20:40 | 51.51585 | 2.64050 | 24089 ft | 400 kts | 289° |
| 2026-05-07 20:41 | 51.52551 | 2.59859 | 24095 ft | 400 kts | 289° |
| 2026-05-07 20:41 | 51.53516 | 2.55658 | 24093 ft | 400 kts | 289° |
| 2026-05-07 20:41 | 51.54479 | 2.51464 | 24095 ft | 400 kts | 289° |
| 2026-05-07 20:41 | 51.55443 | 2.47268 | 24102 ft | 400 kts | 289° |
| 2026-05-07 20:42 | 51.56405 | 2.43067 | 24100 ft | 400 kts | 289° |
| 2026-05-07 20:42 | 51.57365 | 2.38859 | 24099 ft | 400 kts | 288° |
| 2026-05-07 20:42 | 51.58320 | 2.34665 | 24095 ft | 400 kts | 288° |
| 2026-05-07 20:42 | 51.59263 | 2.30521 | 24094 ft | 400 kts | 288° |
| 2026-05-07 20:43 | 51.60229 | 2.26275 | 24091 ft | 399 kts | 288° |
| 2026-05-07 20:43 | 51.61168 | 2.22132 | 24088 ft | 399 kts | 288° |
| 2026-05-07 20:43 | 51.62117 | 2.17934 | 24086 ft | 399 kts | 288° |
| 2026-05-07 20:43 | 51.63066 | 2.13731 | 24085 ft | 399 kts | 288° |
| 2026-05-07 20:44 | 51.64011 | 2.09538 | 24084 ft | 399 kts | 288° |
| 2026-05-07 20:44 | 51.64959 | 2.05331 | 24082 ft | 399 kts | 288° |
| 2026-05-07 20:44 | 51.65905 | 2.01123 | 24082 ft | 399 kts | 288° |
| 2026-05-07 20:44 | 51.66849 | 1.96916 | 24082 ft | 399 kts | 288° |
| 2026-05-07 20:45 | 51.67473 | 1.94132 | 24082 ft | 399 kts | 288° |
| 2026-05-07 20:45 | 51.68413 | 1.89916 | 24085 ft | 400 kts | 288° |
| 2026-05-07 20:45 | 51.69350 | 1.85694 | 24082 ft | 400 kts | 288° |
| 2026-05-07 20:45 | 51.70287 | 1.81468 | 24089 ft | 400 kts | 288° |
| 2026-05-07 20:46 | 51.71224 | 1.77242 | 24093 ft | 400 kts | 288° |
| 2026-05-07 20:46 | 51.72158 | 1.73012 | 24089 ft | 401 kts | 288° |
| 2026-05-07 20:46 | 51.73092 | 1.68778 | 24090 ft | 401 kts | 288° |
| 2026-05-07 20:46 | 51.73965 | 1.64514 | 24090 ft | 400 kts | 283° |
| 2026-05-07 20:47 | 51.74422 | 1.60106 | 24088 ft | 398 kts | 273° |
| 2026-05-07 20:47 | 51.74426 | 1.55650 | 23738 ft | 398 kts | 265° |
| 2026-05-07 20:47 | 51.74165 | 1.51162 | 22724 ft | 402 kts | 263° |
| 2026-05-07 20:47 | 51.73877 | 1.46748 | 22303 ft | 391 kts | 263° |
| 2026-05-07 20:48 | 51.73584 | 1.42419 | 21795 ft | 385 kts | 263° |
| 2026-05-07 20:48 | 51.73293 | 1.38165 | 21317 ft | 378 kts | 263° |
| 2026-05-07 20:48 | 51.73015 | 1.34039 | 20847 ft | 372 kts | 263° |
| 2026-05-07 20:48 | 51.72739 | 1.29911 | 20384 ft | 367 kts | 263° |
| 2026-05-07 20:49 | 51.72469 | 1.25846 | 19916 ft | 363 kts | 263° |
| 2026-05-07 20:49 | 51.72202 | 1.21819 | 19451 ft | 359 kts | 263° |
| 2026-05-07 20:49 | 51.71939 | 1.17832 | 18984 ft | 356 kts | 263° |
| 2026-05-07 20:49 | 51.71677 | 1.13882 | 18504 ft | 354 kts | 263° |
| 2026-05-07 20:50 | 51.71415 | 1.09942 | 17989 ft | 352 kts | 263° |
| 2026-05-07 20:50 | 51.71151 | 1.06038 | 17491 ft | 349 kts | 263° |
| 2026-05-07 20:50 | 51.70883 | 1.02168 | 17003 ft | 346 kts | 262° |
| 2026-05-07 20:50 | 51.70615 | 0.98327 | 16516 ft | 344 kts | 262° |
| 2026-05-07 20:51 | 51.70349 | 0.94505 | 16026 ft | 342 kts | 262° |
| 2026-05-07 20:51 | 51.70080 | 0.90633 | 15396 ft | 351 kts | 262° |
| 2026-05-07 20:51 | 51.69809 | 0.86720 | 14765 ft | 353 kts | 262° |
| 2026-05-07 20:51 | 51.69538 | 0.82782 | 14140 ft | 354 kts | 262° |
| 2026-05-07 20:52 | 51.69264 | 0.78822 | 13458 ft | 356 kts | 262° |
| 2026-05-07 20:52 | 51.68985 | 0.74914 | 12829 ft | 355 kts | 262° |
| 2026-05-07 20:52 | 51.68702 | 0.70973 | 12195 ft | 353 kts | 262° |
| 2026-05-07 20:52 | 51.68420 | 0.67053 | 11569 ft | 351 kts | 262° |
| 2026-05-07 20:53 | 51.68143 | 0.63189 | 11293 ft | 339 kts | 262° |
| 2026-05-07 20:53 | 51.67880 | 0.59500 | 11173 ft | 324 kts | 262° |
| 2026-05-07 20:53 | 51.67626 | 0.55963 | 11045 ft | 311 kts | 262° |
| 2026-05-07 20:53 | 51.67381 | 0.52568 | 10919 ft | 299 kts | 262° |
| 2026-05-07 20:54 | 51.67145 | 0.49292 | 10751 ft | 290 kts | 262° |
| 2026-05-07 20:54 | 51.66913 | 0.46101 | 10542 ft | 283 kts | 262° |
| 2026-05-07 20:54 | 51.66680 | 0.42969 | 10195 ft | 282 kts | 262° |
| 2026-05-07 20:54 | 51.66446 | 0.39828 | 9730 ft | 283 kts | 262° |
| 2026-05-07 20:55 | 51.66216 | 0.36723 | 9539 ft | 274 kts | 263° |
| 2026-05-07 20:55 | 51.65999 | 0.33755 | 9474 ft | 260 kts | 262° |
| 2026-05-07 20:55 | 51.65792 | 0.30916 | 9337 ft | 254 kts | 262° |
| 2026-05-07 20:55 | 51.65583 | 0.28087 | 8994 ft | 255 kts | 262° |
| 2026-05-07 20:56 | 51.65363 | 0.25185 | 8597 ft | 268 kts | 262° |
| 2026-05-07 20:56 | 51.65131 | 0.22165 | 8086 ft | 274 kts | 262° |
| 2026-05-07 20:56 | 51.64897 | 0.19125 | 7629 ft | 274 kts | 262° |
| 2026-05-07 20:56 | 51.64668 | 0.16087 | 7221 ft | 273 kts | 262° |
| 2026-05-07 20:57 | 51.64472 | 0.13075 | 7094 ft | 271 kts | 265° |
| 2026-05-07 20:57 | 51.64352 | 0.10029 | 7104 ft | 273 kts | 266° |
| 2026-05-07 20:57 | 51.64246 | 0.06982 | 7106 ft | 273 kts | 266° |
| 2026-05-07 20:57 | 51.64144 | 0.03970 | 7106 ft | 273 kts | 266° |
| 2026-05-07 20:58 | 51.64041 | 0.00916 | 7106 ft | 273 kts | 266° |
| 2026-05-07 20:58 | 51.63940 | -0.02124 | 7080 ft | 272 kts | 266° |
| 2026-05-07 20:58 | 51.63829 | -0.05153 | 7080 ft | 271 kts | 266° |
| 2026-05-07 20:58 | 51.63716 | -0.08183 | 7081 ft | 271 kts | 266° |
| 2026-05-07 20:59 | 51.63602 | -0.11207 | 7083 ft | 271 kts | 266° |
| 2026-05-07 20:59 | 51.63487 | -0.14240 | 7083 ft | 271 kts | 266° |
| 2026-05-07 20:59 | 51.63370 | -0.17268 | 7084 ft | 271 kts | 266° |
| 2026-05-07 20:59 | 51.63255 | -0.20296 | 7084 ft | 271 kts | 266° |
| 2026-05-07 21:00 | 51.63139 | -0.23334 | 7080 ft | 271 kts | 266° |
| 2026-05-07 21:00 | 51.63025 | -0.26360 | 7083 ft | 270 kts | 266° |
| 2026-05-07 21:00 | 51.62912 | -0.29376 | 7084 ft | 270 kts | 266° |
| 2026-05-07 21:00 | 51.62797 | -0.32400 | 7084 ft | 271 kts | 266° |
| 2026-05-07 21:01 | 51.62682 | -0.35422 | 7086 ft | 271 kts | 266° |
| 2026-05-07 21:01 | 51.62564 | -0.38454 | 7084 ft | 272 kts | 266° |
| 2026-05-07 21:01 | 51.62445 | -0.41491 | 7084 ft | 271 kts | 266° |
| 2026-05-07 21:01 | 51.62327 | -0.44521 | 7084 ft | 271 kts | 266° |
| 2026-05-07 21:02 | 51.62208 | -0.47547 | 7085 ft | 271 kts | 266° |
| 2026-05-07 21:02 | 51.62089 | -0.50570 | 7084 ft | 271 kts | 266° |
| 2026-05-07 21:02 | 51.61972 | -0.53589 | 7022 ft | 269 kts | 266° |
| 2026-05-07 21:02 | 51.61855 | -0.56569 | 6621 ft | 267 kts | 266° |
| 2026-05-07 21:03 | 51.61737 | -0.59525 | 6137 ft | 268 kts | 266° |
| 2026-05-07 21:03 | 51.61618 | -0.62561 | 5659 ft | 269 kts | 266° |
| 2026-05-07 21:03 | 51.61501 | -0.65556 | 5213 ft | 268 kts | 266° |
| 2026-05-07 21:03 | 51.61388 | -0.68555 | 4747 ft | 268 kts | 266° |
| 2026-05-07 21:04 | 51.61280 | -0.71544 | 4314 ft | 267 kts | 266° |
| 2026-05-07 21:04 | 51.61133 | -0.74467 | 3896 ft | 264 kts | 257° |
| 2026-05-07 21:04 | 51.60349 | -0.77053 | 3639 ft | 258 kts | 227° |
| 2026-05-07 21:04 | 51.58886 | -0.78649 | 3463 ft | 256 kts | 197° |
| 2026-05-07 21:05 | 51.57137 | -0.79044 | 3282 ft | 255 kts | 180° |
| 2026-05-07 21:05 | 51.55361 | -0.79051 | 3111 ft | 255 kts | 178° |
| 2026-05-07 21:05 | 51.53583 | -0.79024 | 2998 ft | 255 kts | 178° |
| 2026-05-07 21:05 | 51.51811 | -0.78992 | 3000 ft | 255 kts | 178° |
| 2026-05-07 21:06 | 51.50043 | -0.78856 | 2997 ft | 252 kts | 167° |
| 2026-05-07 21:06 | 51.48570 | -0.77654 | 2999 ft | 230 kts | 135° |
| 2026-05-07 21:06 | 51.47757 | -0.75588 | 3006 ft | 213 kts | 107° |
| 2026-05-07 21:06 | 51.47614 | -0.73312 | 3002 ft | 199 kts | 90° |
| 2026-05-07 21:07 | 51.47632 | -0.71184 | 3020 ft | 179 kts | 90° |
| 2026-05-07 21:07 | 51.47645 | -0.69328 | 2998 ft | 156 kts | 90° |
| 2026-05-07 21:07 | 51.47655 | -0.67652 | 3002 ft | 150 kts | 91° |
| 2026-05-07 21:07 | 51.47664 | -0.65938 | 2869 ft | 158 kts | 91° |
| 2026-05-07 21:08 | 51.47674 | -0.64115 | 2349 ft | 168 kts | 91° |
| 2026-05-07 21:08 | 51.47684 | -0.62221 | 1920 ft | 169 kts | 91° |
| 2026-05-07 21:08 | 51.47694 | -0.60393 | 1629 ft | 160 kts | 91° |
| 2026-05-07 21:08 | 51.47702 | -0.58856 | 1412 ft | 153 kts | 92° |
| 2026-05-07 21:09 | 51.47710 | -0.57193 | 1199 ft | 145 kts | 91° |
| 2026-05-07 21:09 | 51.47715 | -0.55594 | 992 ft | 142 kts | 91° |
| 2026-05-07 21:09 | 51.47724 | -0.54022 | 810 ft | 140 kts | 91° |
| 2026-05-07 21:09 | 51.47729 | -0.52487 | 641 ft | 136 kts | 91° |
| 2026-05-07 21:10 | 51.47737 | -0.50971 | 441 ft | 135 kts | 91° |
| 2026-05-07 21:10 | 51.47748 | -0.49472 | 253 ft | 134 kts | 90° |
| 2026-05-07 21:10 | 51.47751 | -0.48007 | 96 ft | 128 kts | 89° |
| 2026-05-07 21:10 | 51.47756 | -0.46743 | 97 ft | 92 kts | 90° |
| 2026-05-07 21:11 | 51.47738 | -0.46183 | 90 ft | 18 kts | 129° |
| 2026-05-07 21:11 | 51.47657 | -0.46093 | 91 ft | 4 kts | 146° |